sensor_id;sensor_type;location;lat;lon;timestamp;P1;durP1;ratioP1;P2;durP2;ratioP2
42948;SDS011;28587;46.794;23.594;2022-10-26T00:07:42;5.22;;;4.70;;
42948;SDS011;28587;46.794;23.594;2022-10-26T00:12:46;5.60;;;4.65;;
42948;SDS011;28587;46.794;23.594;2022-10-26T00:17:49;4.95;;;4.47;;
42948;SDS011;28587;46.794;23.594;2022-10-26T00:22:50;4.80;;;4.40;;
42948;SDS011;28587;46.794;23.594;2022-10-26T00:27:51;4.93;;;4.40;;
42948;SDS011;28587;46.794;23.594;2022-10-26T00:32:52;5.28;;;4.78;;
42948;SDS011;28587;46.794;23.594;2022-10-26T00:37:53;7.70;;;4.47;;
42948;SDS011;28587;46.794;23.594;2022-10-26T00:42:55;4.70;;;4.13;;
42948;SDS011;28587;46.794;23.594;2022-10-26T00:48:00;4.88;;;4.22;;
42948;SDS011;28587;46.794;23.594;2022-10-26T00:53:05;4.50;;;4.10;;
42948;SDS011;28587;46.794;23.594;2022-10-26T00:58:07;4.57;;;3.80;;
42948;SDS011;28587;46.794;23.594;2022-10-26T01:03:10;4.82;;;4.43;;
42948;SDS011;28587;46.794;23.594;2022-10-26T01:08:11;4.93;;;4.03;;
42948;SDS011;28587;46.794;23.594;2022-10-26T01:13:13;4.93;;;4.20;;
42948;SDS011;28587;46.794;23.594;2022-10-26T01:23:33;5.15;;;4.57;;
42948;SDS011;28587;46.794;23.594;2022-10-26T01:28:46;4.43;;;4.03;;
42948;SDS011;28587;46.794;23.594;2022-10-26T01:34:13;4.57;;;3.60;;
42948;SDS011;28587;46.794;23.594;2022-10-26T01:39:27;3.88;;;3.50;;
42948;SDS011;28587;46.794;23.594;2022-10-26T01:44:45;4.10;;;3.70;;
42948;SDS011;28587;46.794;23.594;2022-10-26T01:49:52;4.70;;;4.18;;
42948;SDS011;28587;46.794;23.594;2022-10-26T01:54:59;4.32;;;3.78;;
42948;SDS011;28587;46.794;23.594;2022-10-26T02:00:08;5.53;;;3.97;;
42948;SDS011;28587;46.794;23.594;2022-10-26T02:05:18;4.20;;;3.67;;
42948;SDS011;28587;46.794;23.594;2022-10-26T02:10:53;5.18;;;3.67;;
42948;SDS011;28587;46.794;23.594;2022-10-26T02:21:59;4.30;;;3.63;;
42948;SDS011;28587;46.794;23.594;2022-10-26T02:27:06;4.18;;;3.78;;
42948;SDS011;28587;46.794;23.594;2022-10-26T02:32:11;3.92;;;3.42;;
42948;SDS011;28587;46.794;23.594;2022-10-26T02:37:14;5.00;;;3.75;;
42948;SDS011;28587;46.794;23.594;2022-10-26T02:42:17;4.45;;;4.00;;
42948;SDS011;28587;46.794;23.594;2022-10-26T02:47:18;4.13;;;3.35;;
42948;SDS011;28587;46.794;23.594;2022-10-26T02:57:37;3.80;;;3.30;;
42948;SDS011;28587;46.794;23.594;2022-10-26T03:02:44;5.13;;;4.25;;
42948;SDS011;28587;46.794;23.594;2022-10-26T03:07:51;3.80;;;3.30;;
42948;SDS011;28587;46.794;23.594;2022-10-26T03:12:52;4.00;;;3.67;;
42948;SDS011;28587;46.794;23.594;2022-10-26T03:17:53;4.25;;;3.38;;
42948;SDS011;28587;46.794;23.594;2022-10-26T03:22:54;4.30;;;3.75;;
42948;SDS011;28587;46.794;23.594;2022-10-26T03:27:59;4.05;;;3.40;;
42948;SDS011;28587;46.794;23.594;2022-10-26T03:33:01;4.03;;;3.15;;
42948;SDS011;28587;46.794;23.594;2022-10-26T03:38:02;4.13;;;3.47;;
42948;SDS011;28587;46.794;23.594;2022-10-26T03:43:03;4.40;;;3.50;;
42948;SDS011;28587;46.794;23.594;2022-10-26T03:48:04;4.93;;;3.40;;
42948;SDS011;28587;46.794;23.594;2022-10-26T03:53:05;3.50;;;3.20;;
42948;SDS011;28587;46.794;23.594;2022-10-26T03:58:07;4.07;;;3.67;;
42948;SDS011;28587;46.794;23.594;2022-10-26T04:03:08;4.35;;;3.22;;
42948;SDS011;28587;46.794;23.594;2022-10-26T04:08:09;4.78;;;3.42;;
42948;SDS011;28587;46.794;23.594;2022-10-26T04:13:10;4.03;;;3.63;;
42948;SDS011;28587;46.794;23.594;2022-10-26T04:18:11;3.47;;;3.17;;
42948;SDS011;28587;46.794;23.594;2022-10-26T04:23:13;3.92;;;3.58;;
42948;SDS011;28587;46.794;23.594;2022-10-26T04:28:15;3.65;;;3.35;;
42948;SDS011;28587;46.794;23.594;2022-10-26T04:33:16;3.90;;;3.60;;
42948;SDS011;28587;46.794;23.594;2022-10-26T04:38:17;4.13;;;3.45;;
42948;SDS011;28587;46.794;23.594;2022-10-26T04:43:18;3.40;;;3.10;;
42948;SDS011;28587;46.794;23.594;2022-10-26T04:48:19;3.75;;;3.38;;
42948;SDS011;28587;46.794;23.594;2022-10-26T04:53:20;3.83;;;3.22;;
42948;SDS011;28587;46.794;23.594;2022-10-26T04:58:21;5.22;;;3.08;;
42948;SDS011;28587;46.794;23.594;2022-10-26T05:03:22;6.40;;;3.70;;
42948;SDS011;28587;46.794;23.594;2022-10-26T05:08:23;3.25;;;2.95;;
42948;SDS011;28587;46.794;23.594;2022-10-26T05:13:24;5.55;;;3.65;;
42948;SDS011;28587;46.794;23.594;2022-10-26T05:18:25;3.92;;;3.53;;
42948;SDS011;28587;46.794;23.594;2022-10-26T05:23:26;4.53;;;3.65;;
42948;SDS011;28587;46.794;23.594;2022-10-26T05:28:26;5.43;;;3.40;;
42948;SDS011;28587;46.794;23.594;2022-10-26T05:33:27;7.38;;;3.55;;
42948;SDS011;28587;46.794;23.594;2022-10-26T05:38:28;4.03;;;3.40;;
42948;SDS011;28587;46.794;23.594;2022-10-26T05:43:29;6.82;;;3.50;;
42948;SDS011;28587;46.794;23.594;2022-10-26T05:48:30;6.13;;;3.38;;
42948;SDS011;28587;46.794;23.594;2022-10-26T05:53:31;9.55;;;4.05;;
42948;SDS011;28587;46.794;23.594;2022-10-26T05:58:32;7.93;;;3.75;;
42948;SDS011;28587;46.794;23.594;2022-10-26T06:08:49;7.03;;;3.90;;
42948;SDS011;28587;46.794;23.594;2022-10-26T06:13:50;5.22;;;3.45;;
42948;SDS011;28587;46.794;23.594;2022-10-26T06:29:44;6.97;;;3.90;;
42948;SDS011;28587;46.794;23.594;2022-10-26T06:35:09;9.80;;;4.00;;
42948;SDS011;28587;46.794;23.594;2022-10-26T06:40:22;4.50;;;3.35;;
42948;SDS011;28587;46.794;23.594;2022-10-26T06:45:24;5.30;;;3.67;;
42948;SDS011;28587;46.794;23.594;2022-10-26T06:50:27;4.70;;;3.83;;
42948;SDS011;28587;46.794;23.594;2022-10-26T06:55:29;4.95;;;3.55;;
42948;SDS011;28587;46.794;23.594;2022-10-26T07:00:41;5.53;;;4.13;;
42948;SDS011;28587;46.794;23.594;2022-10-26T07:05:44;7.00;;;3.97;;
42948;SDS011;28587;46.794;23.594;2022-10-26T07:10:45;8.30;;;3.80;;
42948;SDS011;28587;46.794;23.594;2022-10-26T07:15:46;8.85;;;5.80;;
42948;SDS011;28587;46.794;23.594;2022-10-26T07:20:47;12.70;;;5.88;;
42948;SDS011;28587;46.794;23.594;2022-10-26T07:25:48;8.02;;;5.55;;
42948;SDS011;28587;46.794;23.594;2022-10-26T07:30:49;6.50;;;4.97;;
42948;SDS011;28587;46.794;23.594;2022-10-26T07:35:50;5.80;;;5.20;;
42948;SDS011;28587;46.794;23.594;2022-10-26T07:40:53;9.52;;;5.05;;
42948;SDS011;28587;46.794;23.594;2022-10-26T07:45:55;4.45;;;4.05;;
42948;SDS011;28587;46.794;23.594;2022-10-26T07:50:56;7.00;;;4.90;;
42948;SDS011;28587;46.794;23.594;2022-10-26T07:55:57;7.97;;;5.10;;
42948;SDS011;28587;46.794;23.594;2022-10-26T08:01:03;7.38;;;5.20;;
42948;SDS011;28587;46.794;23.594;2022-10-26T08:06:12;9.55;;;5.68;;
42948;SDS011;28587;46.794;23.594;2022-10-26T08:11:13;7.65;;;5.63;;
42948;SDS011;28587;46.794;23.594;2022-10-26T08:16:16;8.55;;;5.72;;
42948;SDS011;28587;46.794;23.594;2022-10-26T08:21:17;11.75;;;6.18;;
42948;SDS011;28587;46.794;23.594;2022-10-26T08:26:18;6.25;;;4.78;;
42948;SDS011;28587;46.794;23.594;2022-10-26T08:31:20;7.53;;;4.68;;
42948;SDS011;28587;46.794;23.594;2022-10-26T08:36:22;7.78;;;4.75;;
42948;SDS011;28587;46.794;23.594;2022-10-26T08:41:43;7.10;;;4.45;;
42948;SDS011;28587;46.794;23.594;2022-10-26T08:46:51;4.70;;;3.83;;
42948;SDS011;28587;46.794;23.594;2022-10-26T08:51:59;6.50;;;4.60;;
42948;SDS011;28587;46.794;23.594;2022-10-26T08:57:03;5.10;;;4.45;;
42948;SDS011;28587;46.794;23.594;2022-10-26T09:02:16;6.97;;;4.63;;
42948;SDS011;28587;46.794;23.594;2022-10-26T09:07:39;8.45;;;5.20;;
42948;SDS011;28587;46.794;23.594;2022-10-26T09:17:58;5.20;;;4.70;;
42948;SDS011;28587;46.794;23.594;2022-10-26T09:23:04;6.50;;;4.88;;
42948;SDS011;28587;46.794;23.594;2022-10-26T09:28:14;5.20;;;4.70;;
42948;SDS011;28587;46.794;23.594;2022-10-26T09:33:24;5.25;;;4.72;;
42948;SDS011;28587;46.794;23.594;2022-10-26T09:38:33;5.43;;;4.70;;
42948;SDS011;28587;46.794;23.594;2022-10-26T09:48:50;6.38;;;5.07;;
42948;SDS011;28587;46.794;23.594;2022-10-26T09:53:56;5.03;;;4.40;;
42948;SDS011;28587;46.794;23.594;2022-10-26T09:59:00;5.43;;;4.07;;
42948;SDS011;28587;46.794;23.594;2022-10-26T10:09:25;4.97;;;4.45;;
42948;SDS011;28587;46.794;23.594;2022-10-26T10:14:27;4.15;;;3.75;;
42948;SDS011;28587;46.794;23.594;2022-10-26T10:19:34;5.88;;;4.15;;
42948;SDS011;28587;46.794;23.594;2022-10-26T10:24:39;4.22;;;3.83;;
42948;SDS011;28587;46.794;23.594;2022-10-26T10:29:42;5.60;;;5.00;;
42948;SDS011;28587;46.794;23.594;2022-10-26T10:34:49;4.95;;;4.10;;
42948;SDS011;28587;46.794;23.594;2022-10-26T10:39:58;4.93;;;4.32;;
42948;SDS011;28587;46.794;23.594;2022-10-26T10:45:23;5.13;;;4.30;;
42948;SDS011;28587;46.794;23.594;2022-10-26T10:50:26;4.40;;;3.97;;
42948;SDS011;28587;46.794;23.594;2022-10-26T10:55:28;5.53;;;4.35;;
42948;SDS011;28587;46.794;23.594;2022-10-26T11:00:29;8.10;;;5.40;;
42948;SDS011;28587;46.794;23.594;2022-10-26T11:11:00;6.15;;;4.90;;
42948;SDS011;28587;46.794;23.594;2022-10-26T11:16:07;4.07;;;3.67;;
42948;SDS011;28587;46.794;23.594;2022-10-26T11:26:32;3.67;;;3.38;;
42948;SDS011;28587;46.794;23.594;2022-10-26T11:31:38;4.00;;;3.55;;
42948;SDS011;28587;46.794;23.594;2022-10-26T11:36:48;4.10;;;3.60;;
42948;SDS011;28587;46.794;23.594;2022-10-26T11:42:04;3.53;;;3.10;;
42948;SDS011;28587;46.794;23.594;2022-10-26T11:47:18;4.40;;;3.30;;
42948;SDS011;28587;46.794;23.594;2022-10-26T11:52:31;3.53;;;3.22;;
42948;SDS011;28587;46.794;23.594;2022-10-26T11:57:37;2.95;;;2.70;;
42948;SDS011;28587;46.794;23.594;2022-10-26T12:02:51;3.70;;;3.40;;
42948;SDS011;28587;46.794;23.594;2022-10-26T12:08:13;3.42;;;3.10;;
42948;SDS011;28587;46.794;23.594;2022-10-26T12:19:00;3.80;;;3.40;;
42948;SDS011;28587;46.794;23.594;2022-10-26T12:44:31;7.53;;;4.30;;
42948;SDS011;28587;46.794;23.594;2022-10-26T13:00:12;6.43;;;4.25;;
42948;SDS011;28587;46.794;23.594;2022-10-26T13:10:32;5.35;;;4.10;;
42948;SDS011;28587;46.794;23.594;2022-10-26T13:15:39;5.63;;;3.90;;
42948;SDS011;28587;46.794;23.594;2022-10-26T13:36:30;5.82;;;3.90;;
42948;SDS011;28587;46.794;23.594;2022-10-26T13:41:52;4.78;;;3.95;;
42948;SDS011;28587;46.794;23.594;2022-10-26T13:47:00;5.20;;;4.30;;
42948;SDS011;28587;46.794;23.594;2022-10-26T13:52:18;5.07;;;3.92;;
42948;SDS011;28587;46.794;23.594;2022-10-26T13:57:28;9.13;;;4.35;;
42948;SDS011;28587;46.794;23.594;2022-10-26T14:02:35;7.03;;;3.90;;
42948;SDS011;28587;46.794;23.594;2022-10-26T14:07:52;7.80;;;4.07;;
42948;SDS011;28587;46.794;23.594;2022-10-26T14:12:57;7.43;;;4.18;;
42948;SDS011;28587;46.794;23.594;2022-10-26T14:17:59;6.60;;;4.45;;
42948;SDS011;28587;46.794;23.594;2022-10-26T14:23:02;8.75;;;4.05;;
42948;SDS011;28587;46.794;23.594;2022-10-26T14:28:15;6.53;;;3.72;;
42948;SDS011;28587;46.794;23.594;2022-10-26T14:33:29;8.32;;;4.40;;
42948;SDS011;28587;46.794;23.594;2022-10-26T14:38:31;6.13;;;3.75;;
42948;SDS011;28587;46.794;23.594;2022-10-26T14:43:43;8.55;;;4.10;;
42948;SDS011;28587;46.794;23.594;2022-10-26T14:48:54;7.00;;;3.92;;
42948;SDS011;28587;46.794;23.594;2022-10-26T14:53:57;7.03;;;3.53;;
42948;SDS011;28587;46.794;23.594;2022-10-26T14:59:08;6.15;;;4.05;;
42948;SDS011;28587;46.794;23.594;2022-10-26T15:09:36;8.52;;;4.05;;
42948;SDS011;28587;46.794;23.594;2022-10-26T15:14:39;11.65;;;3.83;;
42948;SDS011;28587;46.794;23.594;2022-10-26T15:19:43;6.85;;;4.30;;
42948;SDS011;28587;46.794;23.594;2022-10-26T15:24:44;5.32;;;4.07;;
42948;SDS011;28587;46.794;23.594;2022-10-26T15:29:51;5.13;;;4.35;;
42948;SDS011;28587;46.794;23.594;2022-10-26T15:40:23;5.93;;;4.25;;
42948;SDS011;28587;46.794;23.594;2022-10-26T15:45:30;7.43;;;4.50;;
42948;SDS011;28587;46.794;23.594;2022-10-26T15:50:33;5.75;;;4.75;;
42948;SDS011;28587;46.794;23.594;2022-10-26T15:55:34;6.63;;;5.18;;
42948;SDS011;28587;46.794;23.594;2022-10-26T16:00:35;7.25;;;5.15;;
42948;SDS011;28587;46.794;23.594;2022-10-26T16:05:36;7.88;;;5.55;;
42948;SDS011;28587;46.794;23.594;2022-10-26T16:10:37;5.50;;;4.88;;
42948;SDS011;28587;46.794;23.594;2022-10-26T16:15:38;6.07;;;5.05;;
42948;SDS011;28587;46.794;23.594;2022-10-26T16:20:39;7.03;;;5.88;;
42948;SDS011;28587;46.794;23.594;2022-10-26T16:25:42;6.63;;;5.00;;
42948;SDS011;28587;46.794;23.594;2022-10-26T16:30:44;7.57;;;5.25;;
42948;SDS011;28587;46.794;23.594;2022-10-26T16:35:49;8.85;;;5.70;;
42948;SDS011;28587;46.794;23.594;2022-10-26T16:41:04;10.07;;;6.55;;
42948;SDS011;28587;46.794;23.594;2022-10-26T16:46:13;14.73;;;7.85;;
42948;SDS011;28587;46.794;23.594;2022-10-26T16:51:20;15.10;;;9.40;;
42948;SDS011;28587;46.794;23.594;2022-10-26T16:56:25;17.35;;;9.93;;
42948;SDS011;28587;46.794;23.594;2022-10-26T17:01:28;19.50;;;9.45;;
42948;SDS011;28587;46.794;23.594;2022-10-26T17:06:29;16.75;;;9.82;;
42948;SDS011;28587;46.794;23.594;2022-10-26T17:11:30;17.90;;;9.90;;
42948;SDS011;28587;46.794;23.594;2022-10-26T17:16:30;16.65;;;10.23;;
42948;SDS011;28587;46.794;23.594;2022-10-26T17:21:34;21.88;;;11.60;;
42948;SDS011;28587;46.794;23.594;2022-10-26T17:26:35;16.48;;;10.85;;
42948;SDS011;28587;46.794;23.594;2022-10-26T17:31:36;16.38;;;11.07;;
42948;SDS011;28587;46.794;23.594;2022-10-26T17:36:37;17.73;;;12.57;;
42948;SDS011;28587;46.794;23.594;2022-10-26T17:41:38;17.23;;;13.52;;
42948;SDS011;28587;46.794;23.594;2022-10-26T17:46:39;19.98;;;13.95;;
42948;SDS011;28587;46.794;23.594;2022-10-26T17:51:40;20.67;;;15.35;;
42948;SDS011;28587;46.794;23.594;2022-10-26T17:56:41;20.38;;;15.18;;
42948;SDS011;28587;46.794;23.594;2022-10-26T18:01:41;21.45;;;16.48;;
42948;SDS011;28587;46.794;23.594;2022-10-26T18:06:42;21.48;;;16.35;;
42948;SDS011;28587;46.794;23.594;2022-10-26T18:11:43;26.50;;;16.13;;
42948;SDS011;28587;46.794;23.594;2022-10-26T18:16:44;22.23;;;16.25;;
42948;SDS011;28587;46.794;23.594;2022-10-26T18:21:45;20.50;;;16.45;;
42948;SDS011;28587;46.794;23.594;2022-10-26T18:26:46;26.95;;;17.50;;
42948;SDS011;28587;46.794;23.594;2022-10-26T18:31:47;23.70;;;18.88;;
42948;SDS011;28587;46.794;23.594;2022-10-26T18:36:48;26.08;;;18.88;;
42948;SDS011;28587;46.794;23.594;2022-10-26T18:41:49;25.50;;;18.48;;
42948;SDS011;28587;46.794;23.594;2022-10-26T18:46:50;24.92;;;18.30;;
42948;SDS011;28587;46.794;23.594;2022-10-26T18:51:51;25.30;;;18.13;;
42948;SDS011;28587;46.794;23.594;2022-10-26T18:56:52;21.60;;;18.05;;
42948;SDS011;28587;46.794;23.594;2022-10-26T19:01:53;24.23;;;18.10;;
42948;SDS011;28587;46.794;23.594;2022-10-26T19:06:54;22.63;;;17.13;;
42948;SDS011;28587;46.794;23.594;2022-10-26T19:11:55;21.75;;;16.67;;
42948;SDS011;28587;46.794;23.594;2022-10-26T19:16:56;22.38;;;16.23;;
42948;SDS011;28587;46.794;23.594;2022-10-26T19:21:57;21.83;;;17.17;;
42948;SDS011;28587;46.794;23.594;2022-10-26T19:26:59;20.35;;;16.40;;
42948;SDS011;28587;46.794;23.594;2022-10-26T19:32:00;21.23;;;16.55;;
42948;SDS011;28587;46.794;23.594;2022-10-26T19:37:02;20.55;;;15.45;;
42948;SDS011;28587;46.794;23.594;2022-10-26T19:42:04;22.20;;;17.42;;
42948;SDS011;28587;46.794;23.594;2022-10-26T19:47:05;19.00;;;16.10;;
42948;SDS011;28587;46.794;23.594;2022-10-26T19:52:06;20.13;;;15.68;;
42948;SDS011;28587;46.794;23.594;2022-10-26T19:57:07;19.00;;;15.50;;
42948;SDS011;28587;46.794;23.594;2022-10-26T20:02:08;18.90;;;15.88;;
42948;SDS011;28587;46.794;23.594;2022-10-26T20:07:09;20.13;;;15.35;;
42948;SDS011;28587;46.794;23.594;2022-10-26T20:12:10;17.52;;;15.63;;
42948;SDS011;28587;46.794;23.594;2022-10-26T20:17:12;16.23;;;14.52;;
42948;SDS011;28587;46.794;23.594;2022-10-26T20:22:13;18.33;;;15.13;;
42948;SDS011;28587;46.794;23.594;2022-10-26T20:27:15;18.88;;;15.15;;
42948;SDS011;28587;46.794;23.594;2022-10-26T20:32:16;15.77;;;14.07;;
42948;SDS011;28587;46.794;23.594;2022-10-26T20:37:17;16.13;;;14.13;;
42948;SDS011;28587;46.794;23.594;2022-10-26T20:42:20;14.95;;;13.02;;
42948;SDS011;28587;46.794;23.594;2022-10-26T20:47:23;19.17;;;13.73;;
42948;SDS011;28587;46.794;23.594;2022-10-26T20:52:36;17.65;;;14.43;;
42948;SDS011;28587;46.794;23.594;2022-10-26T20:57:37;16.77;;;14.52;;
42948;SDS011;28587;46.794;23.594;2022-10-26T21:02:40;15.30;;;13.65;;
42948;SDS011;28587;46.794;23.594;2022-10-26T21:07:41;15.93;;;13.52;;
42948;SDS011;28587;46.794;23.594;2022-10-26T21:12:42;16.48;;;14.68;;
42948;SDS011;28587;46.794;23.594;2022-10-26T21:17:44;16.00;;;13.43;;
42948;SDS011;28587;46.794;23.594;2022-10-26T21:22:45;16.35;;;13.70;;
42948;SDS011;28587;46.794;23.594;2022-10-26T21:27:46;15.40;;;12.98;;
42948;SDS011;28587;46.794;23.594;2022-10-26T21:32:47;14.80;;;13.20;;
42948;SDS011;28587;46.794;23.594;2022-10-26T21:37:48;15.80;;;13.52;;
42948;SDS011;28587;46.794;23.594;2022-10-26T21:42:49;17.02;;;14.20;;
42948;SDS011;28587;46.794;23.594;2022-10-26T21:47:51;14.90;;;13.23;;
42948;SDS011;28587;46.794;23.594;2022-10-26T21:52:52;14.43;;;12.95;;
42948;SDS011;28587;46.794;23.594;2022-10-26T21:57:53;15.32;;;13.02;;
42948;SDS011;28587;46.794;23.594;2022-10-26T22:02:54;15.85;;;13.07;;
42948;SDS011;28587;46.794;23.594;2022-10-26T22:07:55;14.57;;;12.43;;
42948;SDS011;28587;46.794;23.594;2022-10-26T22:12:57;14.90;;;12.68;;
42948;SDS011;28587;46.794;23.594;2022-10-26T22:17:58;13.75;;;12.32;;
42948;SDS011;28587;46.794;23.594;2022-10-26T22:22:59;13.93;;;12.52;;
42948;SDS011;28587;46.794;23.594;2022-10-26T22:28:00;13.73;;;12.00;;
42948;SDS011;28587;46.794;23.594;2022-10-26T22:33:01;13.35;;;11.90;;
42948;SDS011;28587;46.794;23.594;2022-10-26T22:38:02;14.27;;;12.40;;
42948;SDS011;28587;46.794;23.594;2022-10-26T22:43:03;13.32;;;11.93;;
42948;SDS011;28587;46.794;23.594;2022-10-26T22:48:04;13.13;;;11.48;;
42948;SDS011;28587;46.794;23.594;2022-10-26T22:53:05;12.05;;;10.80;;
42948;SDS011;28587;46.794;23.594;2022-10-26T22:58:06;12.98;;;11.63;;
42948;SDS011;28587;46.794;23.594;2022-10-26T23:03:07;11.93;;;10.73;;
42948;SDS011;28587;46.794;23.594;2022-10-26T23:08:08;12.77;;;11.02;;
42948;SDS011;28587;46.794;23.594;2022-10-26T23:13:09;12.52;;;11.10;;
42948;SDS011;28587;46.794;23.594;2022-10-26T23:18:10;12.30;;;10.65;;
42948;SDS011;28587;46.794;23.594;2022-10-26T23:23:11;12.48;;;10.38;;
42948;SDS011;28587;46.794;23.594;2022-10-26T23:28:12;13.27;;;10.98;;
42948;SDS011;28587;46.794;23.594;2022-10-26T23:33:13;13.13;;;10.90;;
42948;SDS011;28587;46.794;23.594;2022-10-26T23:38:14;12.25;;;10.32;;
42948;SDS011;28587;46.794;23.594;2022-10-26T23:43:14;11.18;;;10.07;;
42948;SDS011;28587;46.794;23.594;2022-10-26T23:48:16;12.27;;;10.43;;
42948;SDS011;28587;46.794;23.594;2022-10-26T23:53:20;11.57;;;10.10;;
42948;SDS011;28587;46.794;23.594;2022-10-26T23:58:22;10.95;;;9.85;;
